Pedro Osorio, Brazil
Current Conditions -  °F | °C
As of 6:00 AM on Saturday 22 Nov 2014 (Local Time) from SBPK Reporting Station
Scattered Clouds Scattered Clouds  
Wind Chill: 72°   Ceiling: Unl
Heat Index: 72°   Visibility: 6mi
Dew Point: 64°   Wind: 14mph
Humidity: 78%   Direction: 290°WNW
Pressure: 29.65"   Gusts: NA
Location:  31.86°S, 52.82°W
Report Text: SBPK 220800Z 29012KT 9999 SCT040 22/18 Q1004
Loading
Personal Weather Stations






























Interactive Weather Map New forecast layout! Learn more

10-Day Weather Forecast

Advertisements
Track Severe Weather on mobile